createdAt,value
2022-12-20T00:02:14.611Z,8.20
2022-12-20T00:06:15.834Z,7.70
2022-12-20T00:10:16.974Z,7.80
2022-12-20T00:14:18.160Z,8.00
2022-12-20T00:18:19.197Z,8.00
2022-12-20T00:22:20.400Z,8.10
2022-12-20T00:26:25.655Z,7.70
2022-12-20T00:30:27.177Z,7.20
2022-12-20T00:34:28.571Z,7.00
2022-12-20T00:38:29.902Z,7.00
2022-12-20T00:42:31.284Z,7.60
2022-12-20T00:46:33.843Z,7.10
2022-12-20T00:50:35.096Z,7.50
2022-12-20T00:54:36.337Z,7.30
2022-12-20T00:58:40.225Z,7.20
2022-12-20T01:02:44.511Z,7.10
2022-12-20T01:06:45.851Z,7.70
2022-12-20T01:10:49.805Z,7.50
2022-12-20T01:14:51.208Z,7.30
2022-12-20T01:18:58.217Z,7.10
2022-12-20T01:22:59.487Z,6.80
2022-12-20T01:27:00.663Z,7.00
2022-12-20T01:31:02.133Z,6.80
2022-12-20T01:35:05.499Z,7.20
2022-12-20T01:39:15.471Z,6.70
2022-12-20T01:43:17.604Z,7.20
2022-12-20T01:47:18.834Z,7.00
2022-12-20T01:51:21.843Z,7.30
2022-12-20T01:55:25.778Z,7.00
2022-12-20T01:59:28.200Z,6.40
2022-12-20T02:03:32.296Z,6.80
2022-12-20T02:07:37.212Z,7.10
2022-12-20T02:12:00.157Z,7.40
2022-12-20T02:16:03.462Z,7.30
2022-12-20T02:20:24.540Z,7.60
2022-12-20T02:24:35.054Z,7.80
2022-12-20T02:28:58.203Z,8.10
2022-12-20T02:33:05.929Z,8.10
2022-12-20T02:37:07.174Z,7.90
2022-12-20T02:41:21.305Z,7.80
2022-12-20T02:45:28.029Z,7.60
2022-12-20T02:49:32.858Z,7.20
2022-12-20T02:53:35.664Z,7.60
2022-12-20T02:57:53.305Z,8.10
2022-12-20T03:01:55.086Z,7.80
2022-12-20T03:05:58.410Z,7.70
2022-12-20T03:09:59.563Z,8.10
2022-12-20T03:14:00.648Z,8.00
2022-12-20T03:18:02.477Z,8.20
2022-12-20T03:22:03.589Z,8.40
2022-12-20T03:26:04.948Z,8.40
2022-12-20T03:30:07.126Z,8.80
2022-12-20T03:34:08.332Z,8.80
2022-12-20T03:38:09.384Z,9.50
2022-12-20T03:42:10.516Z,9.80
2022-12-20T03:46:11.640Z,9.40
2022-12-20T03:50:13.225Z,9.00
2022-12-20T03:54:14.338Z,9.30
2022-12-20T03:58:15.461Z,8.70
2022-12-20T04:02:16.748Z,8.80
2022-12-20T04:06:18.758Z,8.90
2022-12-20T04:10:19.885Z,9.60
2022-12-20T04:14:20.869Z,9.40
2022-12-20T04:18:21.991Z,9.40
2022-12-20T04:22:23.092Z,10.20
2022-12-20T04:26:24.414Z,9.00
2022-12-20T04:30:25.560Z,9.00
2022-12-20T04:34:26.716Z,9.30
2022-12-20T04:38:28.026Z,8.90
2022-12-20T04:42:29.129Z,10.10
2022-12-20T04:46:30.314Z,9.90
2022-12-20T04:50:31.346Z,10.30
2022-12-20T04:54:32.519Z,9.60
2022-12-20T04:58:33.635Z,8.80
2022-12-20T05:02:34.890Z,9.20
2022-12-20T05:06:38.086Z,9.30
2022-12-20T05:10:39.205Z,9.80
2022-12-20T05:14:40.345Z,9.60
2022-12-20T05:18:48.190Z,10.30
2022-12-20T05:23:02.608Z,9.90
2022-12-20T05:27:03.757Z,9.40
2022-12-20T05:31:05.164Z,9.30
2022-12-20T05:35:07.227Z,9.30
2022-12-20T05:39:08.257Z,9.60
2022-12-20T05:43:09.482Z,10.30
2022-12-20T05:47:10.653Z,10.30
2022-12-20T05:51:11.719Z,10.20
2022-12-20T05:55:13.100Z,9.00
2022-12-20T05:59:14.041Z,9.20
2022-12-20T06:03:15.721Z,8.00
2022-12-20T06:07:18.153Z,7.90
2022-12-20T06:11:21.972Z,7.50
2022-12-20T06:15:22.014Z,8.00
2022-12-20T06:19:23.105Z,8.50
2022-12-20T06:23:24.259Z,9.70
2022-12-20T06:27:25.519Z,9.30
2022-12-20T06:31:27.520Z,8.10
2022-12-20T06:35:29.397Z,8.20
2022-12-20T06:39:30.386Z,7.90
2022-12-20T06:43:31.470Z,7.90
2022-12-20T06:47:32.804Z,8.50
2022-12-20T06:51:33.906Z,8.00
2022-12-20T06:55:35.012Z,8.50
2022-12-20T06:59:36.089Z,8.50
2022-12-20T07:03:37.281Z,8.40
2022-12-20T07:07:44.504Z,8.90
2022-12-20T07:11:42.759Z,8.50
2022-12-20T07:15:44.860Z,8.50
2022-12-20T07:19:50.777Z,8.70
2022-12-20T07:23:48.979Z,9.10
2022-12-20T07:27:50.413Z,9.00
2022-12-20T07:31:54.284Z,9.20
2022-12-20T07:36:06.500Z,8.90
2022-12-20T07:40:09.114Z,9.70
2022-12-20T07:44:11.828Z,9.50
2022-12-20T07:48:19.763Z,10.60
2022-12-20T07:52:20.283Z,9.90
2022-12-20T07:56:22.364Z,10.10
2022-12-20T08:00:24.408Z,10.10
2022-12-20T08:04:30.060Z,9.00
2022-12-20T08:08:38.125Z,8.90
2022-12-20T08:12:41.545Z,9.00
2022-12-20T08:16:43.401Z,8.70
2022-12-20T08:20:44.611Z,9.00
2022-12-20T08:24:46.353Z,8.80
2022-12-20T08:28:47.578Z,8.60
2022-12-20T08:32:48.886Z,8.50
2022-12-20T08:36:50.152Z,9.00
2022-12-20T08:40:51.325Z,8.60
2022-12-20T08:44:52.509Z,8.50
2022-12-20T08:48:53.557Z,9.00
2022-12-20T08:52:54.719Z,9.40
2022-12-20T08:56:55.878Z,9.20
2022-12-20T09:01:06.419Z,9.70
2022-12-20T09:05:05.750Z,9.70
2022-12-20T09:09:07.312Z,8.90
2022-12-20T09:13:09.362Z,9.20
2022-12-20T09:17:12.400Z,9.10
2022-12-20T09:21:13.734Z,9.70
2022-12-20T09:25:16.609Z,9.60
2022-12-20T09:29:24.976Z,10.10
2022-12-20T09:33:21.128Z,10.10
2022-12-20T09:37:23.853Z,10.30
2022-12-20T09:41:40.095Z,9.60
2022-12-20T09:45:41.853Z,9.80
2022-12-20T09:49:46.522Z,9.40
2022-12-20T09:54:08.202Z,9.50
2022-12-20T09:58:35.559Z,9.40
2022-12-20T10:02:57.038Z,9.80
2022-12-20T10:06:58.687Z,10.00
2022-12-20T10:11:03.586Z,9.60
2022-12-20T10:15:26.835Z,9.50
2022-12-20T10:19:33.566Z,9.30
2022-12-20T10:23:50.641Z,9.50
2022-12-20T10:27:56.274Z,9.80
2022-12-20T10:32:00.229Z,10.60
2022-12-20T10:36:23.871Z,10.20
2022-12-20T10:40:46.587Z,9.20
2022-12-20T10:44:32.264Z,9.50
2022-12-20T10:48:41.519Z,9.20
2022-12-20T10:52:44.456Z,9.20
2022-12-20T10:56:49.447Z,8.00
2022-12-20T11:00:50.746Z,9.00
2022-12-20T11:05:14.093Z,8.30
2022-12-20T11:09:31.045Z,9.10
2022-12-20T11:13:32.198Z,9.00
2022-12-20T11:17:39.944Z,9.60
2022-12-20T11:21:56.658Z,9.70
2022-12-20T11:26:24.162Z,9.80
2022-12-20T11:30:28.394Z,9.90
2022-12-20T11:34:50.025Z,9.90
2022-12-20T11:39:00.978Z,10.30
2022-12-20T11:43:23.803Z,9.90
2022-12-20T11:47:32.057Z,10.00
2022-12-20T11:51:42.966Z,9.80
2022-12-20T11:55:48.746Z,9.90
2022-12-20T11:59:56.985Z,10.40
2022-12-20T12:04:11.098Z,11.30
2022-12-20T12:08:18.687Z,11.10
2022-12-20T12:12:29.259Z,10.50
2022-12-20T12:16:34.405Z,10.30
2022-12-20T12:20:51.398Z,10.20
2022-12-20T12:24:56.582Z,9.90
2022-12-20T12:29:00.165Z,10.10
2022-12-20T12:33:07.506Z,10.30
2022-12-20T12:37:34.420Z,10.60
2022-12-20T12:41:54.412Z,10.30
2022-12-20T12:45:59.116Z,10.40
2022-12-20T12:50:02.873Z,10.10
2022-12-20T12:54:25.642Z,9.90
2022-12-20T12:58:34.199Z,10.30
2022-12-20T13:02:40.718Z,9.70
2022-12-20T13:06:46.276Z,9.80
2022-12-20T13:10:53.516Z,10.10
2022-12-20T13:14:54.671Z,10.30
2022-12-20T13:19:01.180Z,10.10
2022-12-20T13:23:12.306Z,10.80
2022-12-20T13:27:25.675Z,10.50
2022-12-20T13:31:30.134Z,11.10
2022-12-20T13:35:34.408Z,10.70
2022-12-20T13:39:36.977Z,10.20
2022-12-20T13:43:44.386Z,9.60
2022-12-20T13:47:49.407Z,9.60
2022-12-20T13:52:12.841Z,10.00
2022-12-20T13:56:29.981Z,9.70
2022-12-20T14:00:31.275Z,10.50
2022-12-20T14:04:44.752Z,10.50
2022-12-20T14:08:48.472Z,10.70
2022-12-20T14:12:54.001Z,10.20
2022-12-20T14:16:55.231Z,10.30
2022-12-20T14:20:59.455Z,10.10
2022-12-20T14:25:02.218Z,11.10
2022-12-20T14:29:07.510Z,11.10
2022-12-20T14:33:38.599Z,11.50
2022-12-20T14:37:40.563Z,10.90
2022-12-20T14:41:44.255Z,11.00
2022-12-20T14:45:45.449Z,10.50
2022-12-20T14:49:56.232Z,10.70
2022-12-20T14:53:59.167Z,10.20
2022-12-20T14:58:00.933Z,10.60
2022-12-20T15:02:22.660Z,10.80
2022-12-20T15:06:39.833Z,10.60
2022-12-20T15:11:12.465Z,10.80
2022-12-20T15:15:28.881Z,11.80
2022-12-20T15:19:18.277Z,11.40
2022-12-20T15:23:21.105Z,11.80
2022-12-20T15:27:23.841Z,11.60
2022-12-20T15:31:32.915Z,11.50
2022-12-20T15:35:30.528Z,10.90
2022-12-20T15:39:32.633Z,11.30
2022-12-20T15:43:38.961Z,11.40
2022-12-20T15:47:40.238Z,11.80
2022-12-20T15:51:43.755Z,11.20
2022-12-20T15:55:44.982Z,11.00
2022-12-20T16:00:03.403Z,9.70
2022-12-20T16:03:49.824Z,9.80
2022-12-20T16:07:51.339Z,10.50
2022-12-20T16:11:52.676Z,10.20
2022-12-20T16:15:53.829Z,10.60
2022-12-20T16:19:54.842Z,11.00
2022-12-20T16:23:56.230Z,11.10
2022-12-20T16:27:57.311Z,10.70
2022-12-20T16:31:58.437Z,10.30
2022-12-20T16:35:59.578Z,9.80
2022-12-20T16:40:00.729Z,10.50
2022-12-20T16:44:03.109Z,10.50
2022-12-20T16:48:04.348Z,10.20
2022-12-20T16:52:06.258Z,10.20
2022-12-20T16:56:07.848Z,10.50
2022-12-20T17:00:13.291Z,10.20
2022-12-20T17:04:17.031Z,10.50
2022-12-20T17:12:37.175Z,10.60
2022-12-20T17:16:38.846Z,11.10
2022-12-20T17:20:40.726Z,10.70
2022-12-20T17:24:42.291Z,10.50
2022-12-20T17:28:43.616Z,11.00
2022-12-20T17:32:45.594Z,10.30
2022-12-20T17:36:48.483Z,10.60
2022-12-20T17:40:49.537Z,10.50
2022-12-20T17:44:50.667Z,10.20
2022-12-20T17:48:52.342Z,10.50
2022-12-20T17:52:54.151Z,9.60
2022-12-20T17:56:57.393Z,10.30
2022-12-20T18:00:58.687Z,10.90
2022-12-20T18:04:59.823Z,11.30
2022-12-20T18:09:01.053Z,10.10
2022-12-20T18:13:02.478Z,10.30
2022-12-20T18:17:03.933Z,8.70
2022-12-20T18:21:07.683Z,8.70
2022-12-20T18:25:09.917Z,9.20
2022-12-20T18:29:11.160Z,8.90
2022-12-20T18:33:12.625Z,9.50
2022-12-20T18:37:14.297Z,8.70
2022-12-20T18:41:18.551Z,9.80
2022-12-20T18:45:20.148Z,10.20
2022-12-20T18:49:21.331Z,10.40
2022-12-20T18:53:24.360Z,10.20
2022-12-20T18:57:26.001Z,10.50
2022-12-20T19:01:31.100Z,10.40
2022-12-20T19:05:33.304Z,9.90
2022-12-20T19:09:34.722Z,10.50
2022-12-20T19:13:36.571Z,10.40
2022-12-20T19:17:37.843Z,10.70
2022-12-20T19:21:41.410Z,11.10
2022-12-20T19:25:42.956Z,10.60
2022-12-20T19:29:44.335Z,10.60
2022-12-20T19:33:47.127Z,10.10
2022-12-20T19:37:48.382Z,9.20
2022-12-20T19:42:21.793Z,9.90
2022-12-20T19:45:55.259Z,9.30
2022-12-20T19:49:56.606Z,9.30
2022-12-20T19:53:58.859Z,9.50
2022-12-20T19:58:00.115Z,10.20
2022-12-20T20:02:01.687Z,10.00
2022-12-20T20:06:04.279Z,9.90
2022-12-20T20:10:06.590Z,10.50
2022-12-20T20:14:09.811Z,10.40
2022-12-20T20:18:12.763Z,10.40
2022-12-20T20:22:20.877Z,10.30
2022-12-20T20:26:20.849Z,10.80
2022-12-20T20:30:22.084Z,10.30
2022-12-20T20:34:23.311Z,9.10
2022-12-20T20:38:25.241Z,9.80
2022-12-20T20:42:26.796Z,9.80
2022-12-20T20:46:28.265Z,9.40
2022-12-20T20:50:31.472Z,10.00
2022-12-20T20:54:32.771Z,9.70
2022-12-20T20:58:34.745Z,9.20
2022-12-20T21:02:35.903Z,8.90
2022-12-20T21:06:41.448Z,9.30
2022-12-20T21:10:42.306Z,9.50
2022-12-20T21:15:20.839Z,9.40
2022-12-20T21:18:53.065Z,9.80
2022-12-20T21:22:54.436Z,9.90
2022-12-20T21:26:55.635Z,10.20
2022-12-20T21:31:06.075Z,10.10
2022-12-20T21:35:07.859Z,10.50
2022-12-20T21:39:13.002Z,10.20
2022-12-20T21:43:14.193Z,10.20
2022-12-20T21:47:15.339Z,10.20
2022-12-20T21:51:19.087Z,10.30
2022-12-20T21:55:20.458Z,10.00
2022-12-20T21:59:22.112Z,9.70
2022-12-20T22:03:24.240Z,10.00
2022-12-20T22:07:25.628Z,10.10
2022-12-20T22:11:27.610Z,10.30
2022-12-20T22:15:30.222Z,10.30
2022-12-20T22:19:31.289Z,9.90
2022-12-20T22:23:32.739Z,10.00
2022-12-20T22:27:34.251Z,10.30
2022-12-20T22:31:36.412Z,10.20
2022-12-20T22:35:37.538Z,9.90
2022-12-20T22:39:38.505Z,10.10
2022-12-20T22:43:40.523Z,10.30
2022-12-20T22:47:42.352Z,9.50
2022-12-20T22:51:43.319Z,9.70
2022-12-20T22:55:44.452Z,10.20
2022-12-20T22:59:45.419Z,10.10
2022-12-20T23:03:47.326Z,10.40
2022-12-20T23:07:48.509Z,10.30
2022-12-20T23:12:08.001Z,10.50
2022-12-20T23:16:11.979Z,10.60
2022-12-20T23:20:31.349Z,10.00
2022-12-20T23:24:32.617Z,10.30
2022-12-20T23:28:33.731Z,10.20
2022-12-20T23:32:35.236Z,10.10
2022-12-20T23:36:48.404Z,10.10
2022-12-20T23:40:49.588Z,10.30
2022-12-20T23:44:50.683Z,9.50
2022-12-20T23:48:52.605Z,10.10
2022-12-20T23:52:53.583Z,9.90
2022-12-20T23:56:54.625Z,9.60
